sensor_id;sensor_type;location;lat;lon;timestamp;P1;durP1;ratioP1;P2;durP2;ratioP2
1088;SDS011;533;53.556;9.990;2022-09-27T00:01:19;5.30;;;4.80;;
1088;SDS011;533;53.556;9.990;2022-09-27T00:03:52;4.90;;;4.07;;
1088;SDS011;533;53.556;9.990;2022-09-27T00:06:27;5.23;;;4.00;;
1088;SDS011;533;53.556;9.990;2022-09-27T00:09:00;6.30;;;4.20;;
1088;SDS011;533;53.556;9.990;2022-09-27T00:11:32;5.53;;;3.87;;
1088;SDS011;533;53.556;9.990;2022-09-27T00:14:07;6.13;;;4.10;;
1088;SDS011;533;53.556;9.990;2022-09-27T00:16:41;5.20;;;4.07;;
1088;SDS011;533;53.556;9.990;2022-09-27T00:19:17;4.67;;;3.97;;
1088;SDS011;533;53.556;9.990;2022-09-27T00:21:50;4.67;;;4.17;;
1088;SDS011;533;53.556;9.990;2022-09-27T00:24:23;4.03;;;3.63;;
1088;SDS011;533;53.556;9.990;2022-09-27T00:26:55;4.10;;;3.70;;
1088;SDS011;533;53.556;9.990;2022-09-27T00:29:27;5.20;;;4.23;;
1088;SDS011;533;53.556;9.990;2022-09-27T00:32:00;7.10;;;4.03;;
1088;SDS011;533;53.556;9.990;2022-09-27T00:34:32;5.67;;;3.73;;
1088;SDS011;533;53.556;9.990;2022-09-27T00:37:04;4.50;;;3.77;;
1088;SDS011;533;53.556;9.990;2022-09-27T00:39:36;4.53;;;3.50;;
1088;SDS011;533;53.556;9.990;2022-09-27T00:42:10;5.63;;;4.63;;
1088;SDS011;533;53.556;9.990;2022-09-27T00:50:07;5.20;;;3.80;;
1088;SDS011;533;53.556;9.990;2022-09-27T00:52:45;3.90;;;3.30;;
1088;SDS011;533;53.556;9.990;2022-09-27T00:55:29;6.50;;;3.80;;
1088;SDS011;533;53.556;9.990;2022-09-27T00:58:05;4.77;;;3.50;;
1088;SDS011;533;53.556;9.990;2022-09-27T01:00:38;4.20;;;3.50;;
1088;SDS011;533;53.556;9.990;2022-09-27T01:03:14;4.00;;;3.60;;
1088;SDS011;533;53.556;9.990;2022-09-27T01:05:54;4.00;;;3.60;;
1088;SDS011;533;53.556;9.990;2022-09-27T01:08:27;4.97;;;3.97;;
1088;SDS011;533;53.556;9.990;2022-09-27T01:11:05;5.00;;;4.07;;
1088;SDS011;533;53.556;9.990;2022-09-27T01:13:51;5.47;;;3.90;;
1088;SDS011;533;53.556;9.990;2022-09-27T01:16:41;3.70;;;3.40;;
1088;SDS011;533;53.556;9.990;2022-09-27T01:19:30;3.80;;;3.40;;
1088;SDS011;533;53.556;9.990;2022-09-27T01:22:14;6.13;;;4.20;;
1088;SDS011;533;53.556;9.990;2022-09-27T01:24:54;3.97;;;3.50;;
1088;SDS011;533;53.556;9.990;2022-09-27T01:30:26;8.23;;;4.23;;
1088;SDS011;533;53.556;9.990;2022-09-27T01:33:13;6.03;;;3.70;;
1088;SDS011;533;53.556;9.990;2022-09-27T01:38:42;6.30;;;4.17;;
1088;SDS011;533;53.556;9.990;2022-09-27T01:41:24;3.60;;;3.30;;
1088;SDS011;533;53.556;9.990;2022-09-27T01:44:37;5.57;;;3.63;;
1088;SDS011;533;53.556;9.990;2022-09-27T01:47:22;6.07;;;3.73;;
1088;SDS011;533;53.556;9.990;2022-09-27T01:53:03;4.00;;;3.60;;
1088;SDS011;533;53.556;9.990;2022-09-27T01:55:48;4.40;;;3.33;;
1088;SDS011;533;53.556;9.990;2022-09-27T01:58:49;4.40;;;3.70;;
1088;SDS011;533;53.556;9.990;2022-09-27T02:01:25;3.50;;;3.20;;
1088;SDS011;533;53.556;9.990;2022-09-27T02:04:00;4.30;;;3.27;;
1088;SDS011;533;53.556;9.990;2022-09-27T02:06:55;4.30;;;3.90;;
1088;SDS011;533;53.556;9.990;2022-09-27T02:09:41;5.07;;;4.20;;
1088;SDS011;533;53.556;9.990;2022-09-27T02:12:22;4.27;;;3.87;;
1088;SDS011;533;53.556;9.990;2022-09-27T02:15:04;5.50;;;4.17;;
1088;SDS011;533;53.556;9.990;2022-09-27T02:17:41;5.10;;;4.00;;
1088;SDS011;533;53.556;9.990;2022-09-27T02:25:39;4.20;;;3.40;;
1088;SDS011;533;53.556;9.990;2022-09-27T02:28:38;4.70;;;3.73;;
1088;SDS011;533;53.556;9.990;2022-09-27T02:31:15;4.60;;;4.13;;
1088;SDS011;533;53.556;9.990;2022-09-27T02:33:49;4.23;;;3.70;;
1088;SDS011;533;53.556;9.990;2022-09-27T02:36:23;6.40;;;3.93;;
1088;SDS011;533;53.556;9.990;2022-09-27T02:38:55;5.80;;;4.33;;
1088;SDS011;533;53.556;9.990;2022-09-27T02:41:27;5.20;;;4.63;;
1088;SDS011;533;53.556;9.990;2022-09-27T02:44:03;5.13;;;4.23;;
1088;SDS011;533;53.556;9.990;2022-09-27T02:47:01;6.10;;;4.40;;
1088;SDS011;533;53.556;9.990;2022-09-27T02:55:46;4.50;;;3.80;;
1088;SDS011;533;53.556;9.990;2022-09-27T03:02:05;4.43;;;3.50;;
1088;SDS011;533;53.556;9.990;2022-09-27T03:05:10;4.00;;;3.43;;
1088;SDS011;533;53.556;9.990;2022-09-27T03:07:44;5.53;;;3.80;;
1088;SDS011;533;53.556;9.990;2022-09-27T03:10:17;4.73;;;4.00;;
1088;SDS011;533;53.556;9.990;2022-09-27T03:12:51;4.10;;;3.70;;
1088;SDS011;533;53.556;9.990;2022-09-27T03:15:24;4.60;;;3.77;;
1088;SDS011;533;53.556;9.990;2022-09-27T03:18:16;5.40;;;3.70;;
1088;SDS011;533;53.556;9.990;2022-09-27T03:21:06;4.13;;;3.43;;
1088;SDS011;533;53.556;9.990;2022-09-27T03:23:38;3.70;;;3.23;;
1088;SDS011;533;53.556;9.990;2022-09-27T03:26:10;6.23;;;3.67;;
1088;SDS011;533;53.556;9.990;2022-09-27T03:28:44;4.10;;;3.70;;
1088;SDS011;533;53.556;9.990;2022-09-27T03:31:16;4.00;;;3.60;;
1088;SDS011;533;53.556;9.990;2022-09-27T03:33:56;3.73;;;3.20;;
1088;SDS011;533;53.556;9.990;2022-09-27T03:36:28;4.50;;;3.67;;
1088;SDS011;533;53.556;9.990;2022-09-27T03:39:00;7.17;;;3.87;;
1088;SDS011;533;53.556;9.990;2022-09-27T03:41:32;4.50;;;3.80;;
1088;SDS011;533;53.556;9.990;2022-09-27T03:44:04;4.53;;;3.30;;
1088;SDS011;533;53.556;9.990;2022-09-27T03:46:36;4.30;;;3.67;;
1088;SDS011;533;53.556;9.990;2022-09-27T03:49:08;4.97;;;4.30;;
1088;SDS011;533;53.556;9.990;2022-09-27T03:51:40;5.10;;;4.20;;
1088;SDS011;533;53.556;9.990;2022-09-27T03:54:13;9.43;;;3.83;;
1088;SDS011;533;53.556;9.990;2022-09-27T03:56:45;4.60;;;4.00;;
1088;SDS011;533;53.556;9.990;2022-09-27T03:59:17;4.77;;;4.30;;
1088;SDS011;533;53.556;9.990;2022-09-27T04:02:09;4.17;;;3.60;;
1088;SDS011;533;53.556;9.990;2022-09-27T04:05:01;4.67;;;4.17;;
1088;SDS011;533;53.556;9.990;2022-09-27T04:07:33;4.60;;;3.93;;
1088;SDS011;533;53.556;9.990;2022-09-27T04:10:05;5.10;;;4.50;;
1088;SDS011;533;53.556;9.990;2022-09-27T04:12:39;4.33;;;3.90;;
1088;SDS011;533;53.556;9.990;2022-09-27T04:15:12;4.67;;;4.17;;
1088;SDS011;533;53.556;9.990;2022-09-27T04:17:52;6.17;;;5.33;;
1088;SDS011;533;53.556;9.990;2022-09-27T04:20:36;6.30;;;4.20;;
1088;SDS011;533;53.556;9.990;2022-09-27T04:23:14;3.63;;;3.33;;
1088;SDS011;533;53.556;9.990;2022-09-27T04:25:53;4.50;;;4.00;;
1088;SDS011;533;53.556;9.990;2022-09-27T04:28:44;3.23;;;2.93;;
1088;SDS011;533;53.556;9.990;2022-09-27T04:31:21;5.60;;;4.07;;
1088;SDS011;533;53.556;9.990;2022-09-27T04:34:04;4.03;;;3.63;;
1088;SDS011;533;53.556;9.990;2022-09-27T04:36:38;6.40;;;4.20;;
1088;SDS011;533;53.556;9.990;2022-09-27T04:39:13;4.33;;;3.93;;
1088;SDS011;533;53.556;9.990;2022-09-27T04:41:47;6.80;;;4.73;;
1088;SDS011;533;53.556;9.990;2022-09-27T04:44:19;5.77;;;4.63;;
1088;SDS011;533;53.556;9.990;2022-09-27T04:46:54;5.50;;;4.10;;
1088;SDS011;533;53.556;9.990;2022-09-27T04:49:26;5.40;;;4.57;;
1088;SDS011;533;53.556;9.990;2022-09-27T04:51:58;6.00;;;4.30;;
1088;SDS011;533;53.556;9.990;2022-09-27T04:54:31;6.20;;;4.83;;
1088;SDS011;533;53.556;9.990;2022-09-27T04:57:14;5.10;;;4.60;;
1088;SDS011;533;53.556;9.990;2022-09-27T04:59:46;6.70;;;4.37;;
1088;SDS011;533;53.556;9.990;2022-09-27T05:02:19;6.87;;;5.23;;
1088;SDS011;533;53.556;9.990;2022-09-27T05:05:20;6.30;;;5.20;;
1088;SDS011;533;53.556;9.990;2022-09-27T05:07:53;6.60;;;5.83;;
1088;SDS011;533;53.556;9.990;2022-09-27T05:10:35;16.40;;;12.30;;
1088;SDS011;533;53.556;9.990;2022-09-27T05:13:07;11.37;;;7.10;;
1088;SDS011;533;53.556;9.990;2022-09-27T05:15:40;8.80;;;7.00;;
1088;SDS011;533;53.556;9.990;2022-09-27T05:18:35;11.00;;;8.10;;
1088;SDS011;533;53.556;9.990;2022-09-27T05:21:45;10.80;;;9.03;;
1088;SDS011;533;53.556;9.990;2022-09-27T05:24:17;12.13;;;8.63;;
1088;SDS011;533;53.556;9.990;2022-09-27T05:26:49;11.83;;;8.77;;
1088;SDS011;533;53.556;9.990;2022-09-27T05:29:21;11.27;;;8.40;;
1088;SDS011;533;53.556;9.990;2022-09-27T05:32:08;12.03;;;10.23;;
1088;SDS011;533;53.556;9.990;2022-09-27T05:34:40;12.30;;;9.50;;
1088;SDS011;533;53.556;9.990;2022-09-27T05:37:12;14.10;;;10.70;;
1088;SDS011;533;53.556;9.990;2022-09-27T05:39:45;12.60;;;10.23;;
1088;SDS011;533;53.556;9.990;2022-09-27T05:42:18;22.07;;;10.80;;
1088;SDS011;533;53.556;9.990;2022-09-27T05:44:50;14.37;;;10.70;;
1088;SDS011;533;53.556;9.990;2022-09-27T05:47:22;18.60;;;11.77;;
1088;SDS011;533;53.556;9.990;2022-09-27T05:49:54;17.57;;;11.97;;
1088;SDS011;533;53.556;9.990;2022-09-27T05:52:26;20.30;;;12.63;;
1088;SDS011;533;53.556;9.990;2022-09-27T05:54:59;20.50;;;12.60;;
1088;SDS011;533;53.556;9.990;2022-09-27T05:57:32;22.20;;;13.17;;
1088;SDS011;533;53.556;9.990;2022-09-27T06:00:08;17.87;;;12.23;;
1088;SDS011;533;53.556;9.990;2022-09-27T06:02:43;17.23;;;11.50;;
1088;SDS011;533;53.556;9.990;2022-09-27T06:05:35;20.00;;;12.63;;
1088;SDS011;533;53.556;9.990;2022-09-27T06:08:27;17.60;;;12.30;;
1088;SDS011;533;53.556;9.990;2022-09-27T06:10:59;15.60;;;12.53;;
1088;SDS011;533;53.556;9.990;2022-09-27T06:13:35;17.90;;;11.60;;
1088;SDS011;533;53.556;9.990;2022-09-27T06:16:09;16.43;;;11.23;;
1088;SDS011;533;53.556;9.990;2022-09-27T06:18:43;19.73;;;10.60;;
1088;SDS011;533;53.556;9.990;2022-09-27T06:21:15;16.00;;;10.80;;
1088;SDS011;533;53.556;9.990;2022-09-27T06:23:54;17.30;;;10.33;;
1088;SDS011;533;53.556;9.990;2022-09-27T06:26:34;15.97;;;9.87;;
1088;SDS011;533;53.556;9.990;2022-09-27T06:29:18;17.53;;;8.57;;
1088;SDS011;533;53.556;9.990;2022-09-27T06:31:56;20.60;;;8.80;;
1088;SDS011;533;53.556;9.990;2022-09-27T06:34:40;15.20;;;8.90;;
1088;SDS011;533;53.556;9.990;2022-09-27T06:37:12;12.10;;;7.40;;
1088;SDS011;533;53.556;9.990;2022-09-27T06:39:45;14.87;;;7.80;;
1088;SDS011;533;53.556;9.990;2022-09-27T06:42:38;13.43;;;7.80;;
1088;SDS011;533;53.556;9.990;2022-09-27T06:45:19;9.90;;;6.90;;
1088;SDS011;533;53.556;9.990;2022-09-27T06:48:11;7.63;;;5.73;;
1088;SDS011;533;53.556;9.990;2022-09-27T06:50:58;10.13;;;6.07;;
1088;SDS011;533;53.556;9.990;2022-09-27T06:53:30;8.93;;;6.67;;
1088;SDS011;533;53.556;9.990;2022-09-27T06:56:02;5.67;;;4.53;;
1088;SDS011;533;53.556;9.990;2022-09-27T06:58:45;6.33;;;4.23;;
1088;SDS011;533;53.556;9.990;2022-09-27T07:01:59;7.73;;;4.90;;
1088;SDS011;533;53.556;9.990;2022-09-27T07:04:56;4.83;;;3.60;;
1088;SDS011;533;53.556;9.990;2022-09-27T07:07:42;5.33;;;3.77;;
1088;SDS011;533;53.556;9.990;2022-09-27T07:10:18;9.40;;;3.73;;
1088;SDS011;533;53.556;9.990;2022-09-27T07:12:50;4.43;;;3.30;;
1088;SDS011;533;53.556;9.990;2022-09-27T07:15:22;5.70;;;3.50;;
1088;SDS011;533;53.556;9.990;2022-09-27T07:17:55;4.50;;;2.93;;
1088;SDS011;533;53.556;9.990;2022-09-27T07:20:30;4.40;;;2.60;;
1088;SDS011;533;53.556;9.990;2022-09-27T07:23:06;4.87;;;3.30;;
1088;SDS011;533;53.556;9.990;2022-09-27T07:25:39;3.50;;;2.10;;
1088;SDS011;533;53.556;9.990;2022-09-27T07:28:13;3.93;;;2.37;;
1088;SDS011;533;53.556;9.990;2022-09-27T07:30:55;4.97;;;2.47;;
1088;SDS011;533;53.556;9.990;2022-09-27T07:33:27;4.40;;;2.20;;
1088;SDS011;533;53.556;9.990;2022-09-27T07:36:00;3.57;;;1.60;;
1088;SDS011;533;53.556;9.990;2022-09-27T07:38:37;5.03;;;2.07;;
1088;SDS011;533;53.556;9.990;2022-09-27T07:41:11;2.20;;;1.60;;
1088;SDS011;533;53.556;9.990;2022-09-27T07:43:45;2.17;;;1.60;;
1088;SDS011;533;53.556;9.990;2022-09-27T07:46:18;3.20;;;1.50;;
1088;SDS011;533;53.556;9.990;2022-09-27T07:49:11;4.70;;;2.47;;
1088;SDS011;533;53.556;9.990;2022-09-27T07:52:03;3.80;;;2.23;;
1088;SDS011;533;53.556;9.990;2022-09-27T07:55:01;3.40;;;2.80;;
1088;SDS011;533;53.556;9.990;2022-09-27T07:57:59;3.23;;;2.30;;
1088;SDS011;533;53.556;9.990;2022-09-27T08:00:33;4.00;;;2.73;;
1088;SDS011;533;53.556;9.990;2022-09-27T08:03:06;3.50;;;2.40;;
1088;SDS011;533;53.556;9.990;2022-09-27T08:05:41;3.80;;;2.30;;
1088;SDS011;533;53.556;9.990;2022-09-27T08:08:17;4.70;;;2.50;;
1088;SDS011;533;53.556;9.990;2022-09-27T08:10:51;3.27;;;2.40;;
1088;SDS011;533;53.556;9.990;2022-09-27T08:13:23;6.40;;;2.77;;
1088;SDS011;533;53.556;9.990;2022-09-27T08:16:00;5.80;;;3.47;;
1088;SDS011;533;53.556;9.990;2022-09-27T08:18:37;4.63;;;2.90;;
1088;SDS011;533;53.556;9.990;2022-09-27T08:21:34;5.13;;;3.20;;
1088;SDS011;533;53.556;9.990;2022-09-27T08:24:16;4.00;;;3.17;;
1088;SDS011;533;53.556;9.990;2022-09-27T08:27:08;6.17;;;4.13;;
1088;SDS011;533;53.556;9.990;2022-09-27T08:29:56;5.27;;;3.63;;
1088;SDS011;533;53.556;9.990;2022-09-27T08:32:30;4.40;;;3.20;;
1088;SDS011;533;53.556;9.990;2022-09-27T08:35:05;6.97;;;3.17;;
1088;SDS011;533;53.556;9.990;2022-09-27T08:37:38;9.57;;;3.00;;
1088;SDS011;533;53.556;9.990;2022-09-27T08:40:12;6.60;;;2.90;;
1088;SDS011;533;53.556;9.990;2022-09-27T08:42:47;4.43;;;2.33;;
1088;SDS011;533;53.556;9.990;2022-09-27T08:45:28;2.90;;;2.60;;
1088;SDS011;533;53.556;9.990;2022-09-27T08:48:03;5.73;;;2.50;;
1088;SDS011;533;53.556;9.990;2022-09-27T08:50:42;3.27;;;2.17;;
1088;SDS011;533;53.556;9.990;2022-09-27T08:53:21;5.93;;;4.10;;
1088;SDS011;533;53.556;9.990;2022-09-27T08:55:57;6.47;;;3.27;;
1088;SDS011;533;53.556;9.990;2022-09-27T09:01:32;7.03;;;3.33;;
1088;SDS011;533;53.556;9.990;2022-09-27T09:04:12;7.23;;;2.70;;
1088;SDS011;533;53.556;9.990;2022-09-27T09:15:34;4.40;;;2.20;;
1088;SDS011;533;53.556;9.990;2022-09-27T09:24:55;3.10;;;2.50;;
1088;SDS011;533;53.556;9.990;2022-09-27T09:28:03;4.80;;;2.97;;
1088;SDS011;533;53.556;9.990;2022-09-27T09:33:28;3.80;;;3.10;;
1088;SDS011;533;53.556;9.990;2022-09-27T09:42:04;4.57;;;3.23;;
1088;SDS011;533;53.556;9.990;2022-09-27T09:47:41;4.30;;;2.60;;
1088;SDS011;533;53.556;9.990;2022-09-27T09:50:35;3.77;;;2.60;;
1088;SDS011;533;53.556;9.990;2022-09-27T09:53:25;5.23;;;2.70;;
1088;SDS011;533;53.556;9.990;2022-09-27T09:56:00;4.60;;;2.67;;
1088;SDS011;533;53.556;9.990;2022-09-27T10:01:42;4.80;;;2.60;;
1088;SDS011;533;53.556;9.990;2022-09-27T10:04:23;2.73;;;2.00;;
1088;SDS011;533;53.556;9.990;2022-09-27T10:07:00;2.90;;;2.10;;
1088;SDS011;533;53.556;9.990;2022-09-27T10:09:37;2.90;;;2.30;;
1088;SDS011;533;53.556;9.990;2022-09-27T10:12:42;5.13;;;2.63;;
1088;SDS011;533;53.556;9.990;2022-09-27T10:15:16;4.10;;;2.57;;
1088;SDS011;533;53.556;9.990;2022-09-27T10:17:53;3.60;;;2.50;;
1088;SDS011;533;53.556;9.990;2022-09-27T10:20:35;4.10;;;2.77;;
1088;SDS011;533;53.556;9.990;2022-09-27T10:23:14;3.50;;;2.03;;
1088;SDS011;533;53.556;9.990;2022-09-27T10:26:10;5.10;;;2.60;;
1088;SDS011;533;53.556;9.990;2022-09-27T10:28:48;4.37;;;2.57;;
1088;SDS011;533;53.556;9.990;2022-09-27T10:31:33;5.27;;;1.70;;
1088;SDS011;533;53.556;9.990;2022-09-27T10:34:29;2.70;;;1.97;;
1088;SDS011;533;53.556;9.990;2022-09-27T10:39:54;3.03;;;1.93;;
1088;SDS011;533;53.556;9.990;2022-09-27T10:42:30;3.53;;;2.30;;
1088;SDS011;533;53.556;9.990;2022-09-27T10:45:28;3.43;;;2.40;;
1088;SDS011;533;53.556;9.990;2022-09-27T10:48:22;3.00;;;2.30;;
1088;SDS011;533;53.556;9.990;2022-09-27T10:51:03;3.90;;;2.40;;
1088;SDS011;533;53.556;9.990;2022-09-27T10:53:48;2.50;;;1.77;;
1088;SDS011;533;53.556;9.990;2022-09-27T10:56:33;7.40;;;2.30;;
1088;SDS011;533;53.556;9.990;2022-09-27T10:59:13;4.07;;;2.20;;
1088;SDS011;533;53.556;9.990;2022-09-27T11:01:49;6.63;;;2.27;;
1088;SDS011;533;53.556;9.990;2022-09-27T11:04:37;2.20;;;1.87;;
1088;SDS011;533;53.556;9.990;2022-09-27T11:07:27;4.50;;;2.67;;
1088;SDS011;533;53.556;9.990;2022-09-27T11:10:28;3.50;;;1.83;;
1088;SDS011;533;53.556;9.990;2022-09-27T11:13:13;3.10;;;2.03;;
1088;SDS011;533;53.556;9.990;2022-09-27T11:30:20;4.00;;;2.10;;
1088;SDS011;533;53.556;9.990;2022-09-27T11:56:02;2.90;;;1.47;;
1088;SDS011;533;53.556;9.990;2022-09-27T12:13:43;2.70;;;1.80;;
1088;SDS011;533;53.556;9.990;2022-09-27T12:16:18;3.70;;;2.20;;
1088;SDS011;533;53.556;9.990;2022-09-27T12:18:51;2.47;;;1.60;;
1088;SDS011;533;53.556;9.990;2022-09-27T12:21:39;1.50;;;1.30;;
1088;SDS011;533;53.556;9.990;2022-09-27T12:24:14;2.27;;;1.57;;
1088;SDS011;533;53.556;9.990;2022-09-27T12:27:15;3.67;;;1.57;;
1088;SDS011;533;53.556;9.990;2022-09-27T12:29:51;2.30;;;1.60;;
1088;SDS011;533;53.556;9.990;2022-09-27T12:32:30;3.30;;;1.80;;
1088;SDS011;533;53.556;9.990;2022-09-27T12:35:17;2.23;;;1.47;;
1088;SDS011;533;53.556;9.990;2022-09-27T12:38:05;2.43;;;1.60;;
1088;SDS011;533;53.556;9.990;2022-09-27T12:40:52;4.87;;;3.00;;
1088;SDS011;533;53.556;9.990;2022-09-27T12:43:36;2.57;;;2.10;;
1088;SDS011;533;53.556;9.990;2022-09-27T12:52:11;4.30;;;1.70;;
1088;SDS011;533;53.556;9.990;2022-09-27T12:54:54;5.73;;;1.97;;
1088;SDS011;533;53.556;9.990;2022-09-27T13:00:45;2.50;;;1.90;;
1088;SDS011;533;53.556;9.990;2022-09-27T13:07:28;2.97;;;1.30;;
1088;SDS011;533;53.556;9.990;2022-09-27T13:13:29;1.80;;;1.00;;
1088;SDS011;533;53.556;9.990;2022-09-27T13:16:08;2.40;;;1.30;;
1088;SDS011;533;53.556;9.990;2022-09-27T13:18:50;2.30;;;1.60;;
1088;SDS011;533;53.556;9.990;2022-09-27T13:24:43;3.30;;;1.27;;
1088;SDS011;533;53.556;9.990;2022-09-27T13:27:37;5.67;;;1.83;;
1088;SDS011;533;53.556;9.990;2022-09-27T13:42:08;2.03;;;1.17;;
1088;SDS011;533;53.556;9.990;2022-09-27T13:47:51;2.60;;;1.10;;
1088;SDS011;533;53.556;9.990;2022-09-27T13:50:38;3.10;;;1.30;;
1088;SDS011;533;53.556;9.990;2022-09-27T13:53:30;2.23;;;1.37;;
1088;SDS011;533;53.556;9.990;2022-09-27T13:56:05;1.70;;;1.10;;
1088;SDS011;533;53.556;9.990;2022-09-27T13:59:31;2.17;;;1.43;;
1088;SDS011;533;53.556;9.990;2022-09-27T14:02:26;2.93;;;1.30;;
1088;SDS011;533;53.556;9.990;2022-09-27T14:05:00;2.70;;;1.20;;
1088;SDS011;533;53.556;9.990;2022-09-27T14:07:35;2.50;;;1.40;;
1088;SDS011;533;53.556;9.990;2022-09-27T14:10:13;2.43;;;1.53;;
1088;SDS011;533;53.556;9.990;2022-09-27T14:12:49;2.60;;;1.57;;
1088;SDS011;533;53.556;9.990;2022-09-27T14:15:23;2.03;;;1.50;;
1088;SDS011;533;53.556;9.990;2022-09-27T14:17:58;4.00;;;1.33;;
1088;SDS011;533;53.556;9.990;2022-09-27T14:23:20;2.20;;;1.30;;
1088;SDS011;533;53.556;9.990;2022-09-27T14:25:54;2.40;;;1.80;;
1088;SDS011;533;53.556;9.990;2022-09-27T14:28:29;2.80;;;1.20;;
1088;SDS011;533;53.556;9.990;2022-09-27T14:31:14;9.83;;;2.40;;
1088;SDS011;533;53.556;9.990;2022-09-27T14:34:17;3.37;;;1.63;;
1088;SDS011;533;53.556;9.990;2022-09-27T14:36:51;2.13;;;1.43;;
1088;SDS011;533;53.556;9.990;2022-09-27T14:40:01;3.40;;;1.70;;
1088;SDS011;533;53.556;9.990;2022-09-27T14:42:37;4.00;;;1.70;;
1088;SDS011;533;53.556;9.990;2022-09-27T14:45:17;2.20;;;1.90;;
1088;SDS011;533;53.556;9.990;2022-09-27T14:47:53;3.60;;;2.47;;
1088;SDS011;533;53.556;9.990;2022-09-27T14:50:27;2.57;;;1.77;;
1088;SDS011;533;53.556;9.990;2022-09-27T14:53:00;4.80;;;2.10;;
1088;SDS011;533;53.556;9.990;2022-09-27T14:55:35;4.37;;;2.17;;
1088;SDS011;533;53.556;9.990;2022-09-27T14:58:10;3.97;;;2.30;;
1088;SDS011;533;53.556;9.990;2022-09-27T15:01:04;4.53;;;2.13;;
1088;SDS011;533;53.556;9.990;2022-09-27T15:03:37;6.50;;;2.33;;
1088;SDS011;533;53.556;9.990;2022-09-27T15:06:15;7.03;;;2.27;;
1088;SDS011;533;53.556;9.990;2022-09-27T15:08:47;4.53;;;2.53;;
1088;SDS011;533;53.556;9.990;2022-09-27T15:11:20;2.47;;;1.70;;
1088;SDS011;533;53.556;9.990;2022-09-27T15:13:52;2.33;;;1.90;;
1088;SDS011;533;53.556;9.990;2022-09-27T15:16:25;2.20;;;1.60;;
1088;SDS011;533;53.556;9.990;2022-09-27T15:19:02;3.60;;;1.80;;
1088;SDS011;533;53.556;9.990;2022-09-27T15:21:38;3.30;;;1.77;;
1088;SDS011;533;53.556;9.990;2022-09-27T15:27:13;3.13;;;2.07;;
1088;SDS011;533;53.556;9.990;2022-09-27T15:29:48;4.17;;;2.20;;
1088;SDS011;533;53.556;9.990;2022-09-27T15:32:22;3.97;;;1.33;;
1088;SDS011;533;53.556;9.990;2022-09-27T15:34:56;2.57;;;1.47;;
1088;SDS011;533;53.556;9.990;2022-09-27T15:37:37;2.50;;;1.40;;
1088;SDS011;533;53.556;9.990;2022-09-27T15:42:58;2.53;;;1.40;;
1088;SDS011;533;53.556;9.990;2022-09-27T15:45:33;2.57;;;1.83;;
1088;SDS011;533;53.556;9.990;2022-09-27T15:48:12;4.37;;;2.17;;
1088;SDS011;533;53.556;9.990;2022-09-27T15:50:45;3.83;;;1.80;;
1088;SDS011;533;53.556;9.990;2022-09-27T15:56:06;2.87;;;1.53;;
1088;SDS011;533;53.556;9.990;2022-09-27T15:58:38;3.43;;;1.50;;
1088;SDS011;533;53.556;9.990;2022-09-27T16:01:14;2.20;;;1.40;;
1088;SDS011;533;53.556;9.990;2022-09-27T16:03:48;4.13;;;1.40;;
1088;SDS011;533;53.556;9.990;2022-09-27T16:06:20;2.93;;;1.40;;
1088;SDS011;533;53.556;9.990;2022-09-27T16:08:54;3.50;;;1.57;;
1088;SDS011;533;53.556;9.990;2022-09-27T16:11:25;4.00;;;1.67;;
1088;SDS011;533;53.556;9.990;2022-09-27T16:13:57;3.20;;;1.27;;
1088;SDS011;533;53.556;9.990;2022-09-27T16:16:30;2.53;;;1.70;;
1088;SDS011;533;53.556;9.990;2022-09-27T16:19:02;3.20;;;1.73;;
1088;SDS011;533;53.556;9.990;2022-09-27T16:21:34;3.60;;;1.40;;
1088;SDS011;533;53.556;9.990;2022-09-27T16:24:05;2.10;;;1.37;;
1088;SDS011;533;53.556;9.990;2022-09-27T16:26:38;3.80;;;1.90;;
1088;SDS011;533;53.556;9.990;2022-09-27T16:29:11;3.73;;;1.60;;
1088;SDS011;533;53.556;9.990;2022-09-27T16:31:44;5.90;;;1.43;;
1088;SDS011;533;53.556;9.990;2022-09-27T16:34:16;3.33;;;1.70;;
1088;SDS011;533;53.556;9.990;2022-09-27T16:36:49;6.23;;;3.00;;
1088;SDS011;533;53.556;9.990;2022-09-27T16:39:21;3.03;;;2.20;;
1088;SDS011;533;53.556;9.990;2022-09-27T16:41:53;3.07;;;1.80;;
1088;SDS011;533;53.556;9.990;2022-09-27T16:44:25;2.50;;;1.63;;
1088;SDS011;533;53.556;9.990;2022-09-27T16:46:57;3.73;;;1.77;;
1088;SDS011;533;53.556;9.990;2022-09-27T16:49:29;5.90;;;1.77;;
1088;SDS011;533;53.556;9.990;2022-09-27T16:52:20;2.30;;;1.53;;
1088;SDS011;533;53.556;9.990;2022-09-27T16:54:52;4.80;;;1.73;;
1088;SDS011;533;53.556;9.990;2022-09-27T16:57:24;3.40;;;1.70;;
1088;SDS011;533;53.556;9.990;2022-09-27T16:59:59;2.30;;;1.53;;
1088;SDS011;533;53.556;9.990;2022-09-27T17:02:31;2.90;;;1.57;;
1088;SDS011;533;53.556;9.990;2022-09-27T17:05:03;3.73;;;1.50;;
1088;SDS011;533;53.556;9.990;2022-09-27T17:07:36;7.90;;;1.30;;
1088;SDS011;533;53.556;9.990;2022-09-27T17:10:08;4.53;;;1.40;;
1088;SDS011;533;53.556;9.990;2022-09-27T17:12:40;2.83;;;1.60;;
1088;SDS011;533;53.556;9.990;2022-09-27T17:15:13;1.73;;;1.40;;
1088;SDS011;533;53.556;9.990;2022-09-27T17:17:48;2.60;;;1.87;;
1088;SDS011;533;53.556;9.990;2022-09-27T17:20:21;3.73;;;2.00;;
1088;SDS011;533;53.556;9.990;2022-09-27T17:22:52;4.33;;;3.63;;
1088;SDS011;533;53.556;9.990;2022-09-27T17:25:24;4.83;;;1.80;;
1088;SDS011;533;53.556;9.990;2022-09-27T17:27:56;4.63;;;1.83;;
1088;SDS011;533;53.556;9.990;2022-09-27T17:30:28;5.10;;;2.57;;
1088;SDS011;533;53.556;9.990;2022-09-27T17:33:00;2.20;;;1.60;;
1088;SDS011;533;53.556;9.990;2022-09-27T17:35:32;4.93;;;2.20;;
1088;SDS011;533;53.556;9.990;2022-09-27T17:38:04;4.43;;;2.10;;
1088;SDS011;533;53.556;9.990;2022-09-27T17:40:36;2.20;;;1.67;;
1088;SDS011;533;53.556;9.990;2022-09-27T17:43:08;3.07;;;1.80;;
1088;SDS011;533;53.556;9.990;2022-09-27T17:45:40;6.27;;;2.63;;
1088;SDS011;533;53.556;9.990;2022-09-27T17:48:12;2.67;;;1.90;;
1088;SDS011;533;53.556;9.990;2022-09-27T17:51:02;2.23;;;1.50;;
1088;SDS011;533;53.556;9.990;2022-09-27T17:53:34;2.60;;;1.23;;
1088;SDS011;533;53.556;9.990;2022-09-27T17:56:07;5.23;;;1.47;;
1088;SDS011;533;53.556;9.990;2022-09-27T17:58:43;3.10;;;1.30;;
1088;SDS011;533;53.556;9.990;2022-09-27T18:01:17;2.73;;;1.57;;
1088;SDS011;533;53.556;9.990;2022-09-27T18:03:53;2.43;;;1.40;;
1088;SDS011;533;53.556;9.990;2022-09-27T18:06:27;2.60;;;1.33;;
1088;SDS011;533;53.556;9.990;2022-09-27T18:08:59;2.93;;;1.47;;
1088;SDS011;533;53.556;9.990;2022-09-27T18:11:33;3.60;;;1.63;;
1088;SDS011;533;53.556;9.990;2022-09-27T18:14:05;3.73;;;1.80;;
1088;SDS011;533;53.556;9.990;2022-09-27T18:16:38;5.57;;;2.57;;
1088;SDS011;533;53.556;9.990;2022-09-27T18:19:14;5.50;;;2.30;;
1088;SDS011;533;53.556;9.990;2022-09-27T18:21:47;3.80;;;2.63;;
1088;SDS011;533;53.556;9.990;2022-09-27T18:24:20;3.57;;;3.03;;
1088;SDS011;533;53.556;9.990;2022-09-27T18:26:52;3.43;;;2.83;;
1088;SDS011;533;53.556;9.990;2022-09-27T18:29:26;3.53;;;2.27;;
1088;SDS011;533;53.556;9.990;2022-09-27T18:31:59;3.17;;;2.27;;
1088;SDS011;533;53.556;9.990;2022-09-27T18:34:33;7.80;;;3.40;;
1088;SDS011;533;53.556;9.990;2022-09-27T18:37:04;6.70;;;3.60;;
1088;SDS011;533;53.556;9.990;2022-09-27T18:39:36;8.43;;;3.23;;
1088;SDS011;533;53.556;9.990;2022-09-27T18:42:10;5.20;;;3.20;;
1088;SDS011;533;53.556;9.990;2022-09-27T18:44:42;3.20;;;2.47;;
1088;SDS011;533;53.556;9.990;2022-09-27T18:47:14;3.83;;;2.80;;
1088;SDS011;533;53.556;9.990;2022-09-27T18:49:46;3.33;;;2.43;;
1088;SDS011;533;53.556;9.990;2022-09-27T18:52:19;3.70;;;2.77;;
1088;SDS011;533;53.556;9.990;2022-09-27T18:54:51;3.00;;;2.30;;
1088;SDS011;533;53.556;9.990;2022-09-27T18:57:23;5.67;;;2.80;;
1088;SDS011;533;53.556;9.990;2022-09-27T18:59:54;4.33;;;3.10;;
1088;SDS011;533;53.556;9.990;2022-09-27T19:02:27;4.10;;;3.20;;
1088;SDS011;533;53.556;9.990;2022-09-27T19:04:58;3.70;;;3.20;;
1088;SDS011;533;53.556;9.990;2022-09-27T19:07:30;8.03;;;3.03;;
1088;SDS011;533;53.556;9.990;2022-09-27T19:10:03;3.90;;;2.80;;
1088;SDS011;533;53.556;9.990;2022-09-27T19:12:35;9.40;;;3.77;;
1088;SDS011;533;53.556;9.990;2022-09-27T19:15:08;5.60;;;3.20;;
1088;SDS011;533;53.556;9.990;2022-09-27T19:17:40;5.00;;;3.53;;
1088;SDS011;533;53.556;9.990;2022-09-27T19:20:12;5.87;;;4.17;;